createdAt,value
2018-09-26T00:01:45.022Z,3.03
2018-09-26T00:06:42.511Z,3.00
2018-09-26T00:11:39.958Z,3.80
2018-09-26T00:16:38.143Z,3.37
2018-09-26T00:21:35.560Z,3.43
2018-09-26T00:26:33.070Z,3.20
2018-09-26T00:31:30.498Z,3.13
2018-09-26T00:36:27.921Z,2.50
2018-09-26T00:41:25.413Z,3.10
2018-09-26T00:46:22.824Z,3.10
2018-09-26T00:51:20.267Z,3.13
2018-09-26T00:56:17.687Z,3.47
2018-09-26T01:01:15.141Z,3.63
2018-09-26T01:06:12.555Z,3.67
2018-09-26T01:11:10.059Z,3.40
2018-09-26T01:16:07.483Z,3.20
2018-09-26T01:21:04.911Z,3.00
2018-09-26T01:26:02.347Z,2.90
2018-09-26T01:30:59.791Z,2.67
2018-09-26T01:35:57.204Z,3.40
2018-09-26T01:40:54.608Z,3.20
2018-09-26T01:45:52.022Z,2.83
2018-09-26T01:50:49.436Z,3.30
2018-09-26T01:55:46.905Z,2.97
2018-09-26T02:00:44.336Z,2.70
2018-09-26T02:05:41.758Z,2.57
2018-09-26T02:10:39.186Z,3.33
2018-09-26T02:15:36.623Z,2.67
2018-09-26T02:20:34.070Z,2.70
2018-09-26T02:25:32.983Z,3.10
2018-09-26T02:30:30.413Z,3.27
2018-09-26T02:35:27.839Z,2.80
2018-09-26T02:40:25.248Z,2.37
2018-09-26T02:45:22.695Z,2.93
2018-09-26T02:50:20.112Z,2.20
2018-09-26T02:55:17.558Z,2.10
2018-09-26T03:00:14.996Z,2.50
2018-09-26T03:05:12.400Z,2.57
2018-09-26T03:10:09.816Z,2.33
2018-09-26T03:15:07.235Z,2.17
2018-09-26T03:20:04.959Z,2.60
2018-09-26T03:25:02.384Z,2.47
2018-09-26T03:29:59.816Z,2.60
2018-09-26T03:34:57.235Z,2.50
2018-09-26T03:39:54.655Z,3.30
2018-09-26T03:44:52.061Z,2.87
2018-09-26T03:49:49.478Z,2.70
2018-09-26T03:54:50.874Z,3.40
2018-09-26T03:59:48.407Z,2.43
2018-09-26T04:04:45.839Z,2.47
2018-09-26T04:09:43.230Z,2.30
2018-09-26T04:14:40.640Z,2.70
2018-09-26T04:19:38.072Z,2.83
2018-09-26T04:24:36.727Z,2.87
2018-09-26T04:29:34.167Z,2.50
2018-09-26T04:34:35.891Z,3.23
2018-09-26T04:39:33.927Z,2.90
2018-09-26T04:44:31.811Z,2.50
2018-09-26T04:49:29.233Z,2.50
2018-09-26T04:54:28.922Z,3.37
2018-09-26T04:59:26.396Z,2.80
2018-09-26T05:04:23.865Z,2.83
2018-09-26T05:09:21.310Z,2.67
2018-09-26T05:14:18.704Z,2.50
2018-09-26T05:19:16.200Z,3.13
2018-09-26T05:24:20.054Z,2.93
2018-09-26T05:29:17.523Z,3.03
2018-09-26T05:34:14.992Z,3.47
2018-09-26T05:39:12.463Z,3.50
2018-09-26T05:44:10.200Z,2.87
2018-09-26T05:49:08.323Z,3.10
2018-09-26T05:54:29.604Z,3.40
2018-09-26T05:59:27.159Z,3.17
2018-09-26T06:04:24.619Z,2.80
2018-09-26T06:09:22.099Z,2.33
2018-09-26T06:14:19.616Z,2.70
2018-09-26T06:19:17.086Z,2.87
2018-09-26T06:24:18.278Z,2.20
2018-09-26T06:29:15.781Z,2.10
2018-09-26T06:34:13.271Z,2.53
2018-09-26T06:39:11.778Z,1.90
2018-09-26T06:44:09.225Z,2.67
2018-09-26T06:49:06.684Z,2.57
2018-09-26T06:54:11.889Z,2.80
2018-09-26T06:59:09.500Z,2.30
2018-09-26T07:04:06.999Z,2.23
2018-09-26T07:09:06.726Z,2.03
2018-09-26T07:14:04.160Z,2.23
2018-09-26T07:19:01.587Z,2.10
2018-09-26T07:24:08.932Z,2.13
2018-09-26T07:29:06.935Z,1.83
2018-09-26T07:34:04.355Z,2.17
2018-09-26T07:39:01.868Z,2.40
2018-09-26T07:43:59.325Z,2.03
2018-09-26T07:48:56.752Z,2.40
2018-09-26T07:54:05.089Z,2.50
2018-09-26T07:59:02.615Z,2.20
2018-09-26T08:04:00.183Z,4.00
2018-09-26T08:08:57.616Z,3.87
2018-09-26T08:13:55.063Z,4.40
2018-09-26T08:18:52.562Z,5.80
2018-09-26T08:28:54.828Z,3.10
2018-09-26T08:33:52.280Z,3.70
2018-09-26T08:38:49.731Z,3.47
2018-09-26T08:43:49.030Z,2.93
2018-09-26T08:48:51.457Z,2.70
2018-09-26T08:53:54.794Z,2.33
2018-09-26T08:58:55.098Z,1.33
2018-09-26T09:03:54.204Z,1.50
2018-09-26T09:08:51.690Z,1.80
2018-09-26T09:13:49.112Z,2.20
2018-09-26T09:18:47.332Z,2.00
2018-09-26T09:23:48.267Z,1.73
2018-09-26T09:28:45.713Z,2.10
2018-09-26T09:33:43.185Z,1.70
2018-09-26T09:38:41.377Z,1.93
2018-09-26T09:43:40.033Z,2.07
2018-09-26T09:48:37.433Z,1.40
2018-09-26T09:53:38.064Z,1.47
2018-09-26T09:58:35.557Z,1.60
2018-09-26T10:03:33.012Z,1.97
2018-09-26T10:08:33.863Z,1.90
2018-09-26T10:13:33.243Z,1.50
2018-09-26T10:18:35.048Z,1.60
2018-09-26T10:23:36.172Z,1.10
2018-09-26T10:28:35.771Z,1.90
2018-09-26T10:33:33.796Z,0.97
2018-09-26T10:38:33.780Z,1.40
2018-09-26T10:43:31.244Z,1.30
2018-09-26T10:48:28.844Z,2.10
2018-09-26T10:53:26.277Z,2.00
2018-09-26T10:58:23.768Z,1.77
2018-09-26T11:03:21.200Z,1.70
2018-09-26T11:08:18.947Z,1.40
2018-09-26T11:13:16.400Z,1.20
2018-09-26T11:18:13.887Z,1.80
2018-09-26T11:23:11.360Z,1.13
2018-09-26T11:28:08.848Z,1.50
2018-09-26T11:33:06.388Z,1.90
2018-09-26T11:38:03.881Z,1.47
2018-09-26T11:43:02.011Z,2.07
2018-09-26T11:48:00.382Z,1.23
2018-09-26T11:52:59.044Z,1.00
2018-09-26T11:57:56.516Z,1.90
2018-09-26T12:02:53.985Z,1.47
2018-09-26T12:07:51.863Z,1.63
2018-09-26T12:12:49.500Z,1.53
2018-09-26T12:18:58.903Z,1.30
2018-09-26T12:24:00.222Z,1.40
2018-09-26T12:28:58.380Z,1.30
2018-09-26T12:33:56.419Z,1.63
2018-09-26T12:39:02.908Z,1.03
2018-09-26T12:44:05.667Z,2.83
2018-09-26T12:49:11.676Z,1.53
2018-09-26T12:54:28.210Z,1.30
2018-09-26T12:59:32.072Z,2.00
2018-09-26T13:04:31.857Z,1.23
2018-09-26T13:14:40.614Z,1.03
2018-09-26T13:19:40.102Z,1.20
2018-09-26T13:24:40.831Z,0.90
2018-09-26T13:29:46.339Z,1.40
2018-09-26T13:34:46.037Z,1.50
2018-09-26T13:39:45.303Z,1.00
2018-09-26T13:44:45.063Z,1.23
2018-09-26T13:49:47.657Z,1.37
2018-09-26T13:54:51.157Z,1.10
2018-09-26T13:59:48.692Z,1.57
2018-09-26T14:04:46.136Z,1.07
2018-09-26T14:09:43.661Z,0.80
2018-09-26T14:14:41.121Z,1.33
2018-09-26T14:19:45.921Z,0.83
2018-09-26T14:24:50.120Z,0.97
2018-09-26T14:29:47.784Z,1.27
2018-09-26T14:34:45.473Z,1.30
2018-09-26T14:39:43.184Z,0.67
2018-09-26T14:44:40.893Z,1.40
2018-09-26T14:49:38.712Z,1.27
2018-09-26T14:54:37.019Z,1.00
2018-09-26T14:59:34.750Z,1.43
2018-09-26T15:04:32.558Z,1.00
2018-09-26T15:09:30.192Z,1.33
2018-09-26T15:14:27.896Z,0.80
2018-09-26T15:19:25.618Z,1.13
2018-09-26T15:24:29.870Z,1.30
2018-09-26T15:29:27.569Z,1.20
2018-09-26T15:34:25.290Z,0.70
2018-09-26T15:39:22.979Z,0.90
2018-09-26T15:44:20.771Z,1.30
2018-09-26T15:49:18.436Z,1.00
2018-09-26T15:54:21.303Z,1.30
2018-09-26T15:59:19.081Z,1.57
2018-09-26T16:04:24.368Z,1.57
2018-09-26T16:09:21.808Z,1.40
2018-09-26T16:14:25.894Z,1.53
2018-09-26T16:19:23.397Z,1.17
2018-09-26T16:24:28.265Z,1.50
2018-09-26T16:29:25.825Z,1.37
2018-09-26T16:34:23.281Z,1.27
2018-09-26T16:39:20.798Z,1.27
2018-09-26T16:44:18.226Z,2.00
2018-09-26T16:49:15.700Z,1.60
2018-09-26T16:54:14.477Z,1.57
2018-09-26T16:59:12.120Z,1.57
2018-09-26T17:04:09.579Z,1.50
2018-09-26T17:09:07.920Z,2.27
2018-09-26T17:14:05.404Z,1.43
2018-09-26T17:19:02.844Z,1.77
2018-09-26T17:24:10.721Z,3.00
2018-09-26T17:29:08.350Z,1.90
2018-09-26T17:34:05.817Z,1.80
2018-09-26T17:39:04.405Z,1.80
2018-09-26T17:44:01.853Z,1.90
2018-09-26T17:48:59.268Z,2.90
2018-09-26T17:54:07.873Z,2.03
2018-09-26T17:59:05.476Z,2.10
2018-09-26T18:04:02.880Z,2.03
2018-09-26T18:09:00.310Z,2.33
2018-09-26T18:13:57.738Z,2.30
2018-09-26T18:18:55.155Z,2.60
2018-09-26T18:24:04.746Z,2.80
2018-09-26T18:29:02.308Z,2.30
2018-09-26T18:33:59.724Z,2.10
2018-09-26T18:38:57.228Z,2.63
2018-09-26T18:43:54.616Z,2.30
2018-09-26T18:48:52.047Z,1.97
2018-09-26T18:53:49.824Z,2.13
2018-09-26T18:58:47.244Z,2.03
2018-09-26T19:03:44.681Z,3.33
2018-09-26T19:08:42.089Z,2.93
2018-09-26T19:13:39.624Z,2.57
2018-09-26T19:18:37.056Z,2.43
2018-09-26T19:23:34.472Z,2.27
2018-09-26T19:28:32.013Z,2.33
2018-09-26T19:33:29.425Z,2.50
2018-09-26T19:38:26.867Z,2.30
2018-09-26T19:43:24.308Z,2.50
2018-09-26T19:48:21.729Z,2.20
2018-09-26T19:53:19.146Z,2.50
2018-09-26T19:58:16.606Z,2.80
2018-09-26T20:03:14.044Z,2.60
2018-09-26T20:08:11.563Z,2.20
2018-09-26T20:13:08.939Z,2.67
2018-09-26T20:18:06.350Z,2.53
2018-09-26T20:23:03.923Z,2.70
2018-09-26T20:28:01.269Z,2.77
2018-09-26T20:32:58.711Z,3.10
2018-09-26T20:37:56.124Z,3.20
2018-09-26T20:42:53.532Z,3.20
2018-09-26T20:47:50.932Z,3.23
2018-09-26T20:52:48.342Z,3.17
2018-09-26T20:57:45.764Z,3.00
2018-09-26T21:02:43.186Z,2.87
2018-09-26T21:07:40.599Z,3.50
2018-09-26T21:12:38.040Z,2.97
2018-09-26T21:17:35.475Z,3.23
2018-09-26T21:22:32.903Z,3.20
2018-09-26T21:27:30.319Z,3.70
2018-09-26T21:32:27.739Z,3.33
2018-09-26T21:37:25.152Z,3.47
2018-09-26T21:42:22.608Z,3.97
2018-09-26T21:47:20.030Z,3.43
2018-09-26T21:52:17.442Z,3.90
2018-09-26T21:57:14.895Z,3.10
2018-09-26T22:02:12.348Z,3.00
2018-09-26T22:07:09.779Z,3.30
2018-09-26T22:12:07.229Z,3.33
2018-09-26T22:17:04.651Z,3.83
2018-09-26T22:22:02.107Z,3.07
2018-09-26T22:26:59.505Z,3.17
2018-09-26T22:31:56.912Z,3.27
2018-09-26T22:36:54.320Z,3.60
2018-09-26T22:41:51.725Z,4.20
2018-09-26T22:46:49.172Z,4.80
2018-09-26T22:51:46.583Z,3.67
2018-09-26T22:56:44.003Z,4.53
2018-09-26T23:01:41.475Z,3.30
2018-09-26T23:06:38.904Z,3.50
2018-09-26T23:11:37.857Z,3.83
2018-09-26T23:16:35.340Z,4.87
2018-09-26T23:21:32.735Z,4.43
2018-09-26T23:26:33.866Z,3.40
2018-09-26T23:31:31.263Z,2.90
2018-09-26T23:36:28.657Z,4.67
2018-09-26T23:41:26.114Z,3.27
2018-09-26T23:46:23.496Z,3.47
2018-09-26T23:51:20.980Z,3.37
2018-09-26T23:56:18.383Z,3.50
